Time;durP1;ratioP1;P1;durP2;ratioP2;P2;SDS_P1;SDS_P2;PMS_P1;PMS_P2;Temp;Humidity;BMP_temperature;BMP_pressure;BME280_temperature;BME280_humidity;BME280_pressure;Samples;Min_cycle;Max_cycle;Signal;HPM_P1;HPM_P2
2021/11/17 02:27:47;;;;;;;9.67;7.40;;;;;;;6.66;87.29;95906.34;5005097;28;20789;-85
2021/11/17 02:30:55;;;;;;;9.17;7.53;;;;;;;6.70;86.73;95900.78;5014302;28;20206;-85
2021/11/17 02:33:46;;;;;;;8.27;6.70;;;;;;;6.69;87.05;95904.31;5014472;28;20209;-85
2021/11/17 02:36:33;;;;;;;8.77;7.43;;;;;;;6.69;86.72;95901.75;5014483;28;20215;-85
2021/11/17 02:39:14;;;;;;;9.93;7.40;;;;;;;6.65;87.73;95907.28;5014667;28;20257;-85
2021/11/17 02:41:54;;;;;;;8.90;7.43;;;;;;;6.65;87.89;95908.09;5014360;28;20202;-85
2021/11/17 02:44:45;;;;;;;9.77;7.67;;;;;;;6.52;88.63;95911.00;5014037;28;20222;-85
2021/11/17 02:47:28;;;;;;;10.60;7.43;;;;;;;6.45;88.83;95912.50;5014623;28;20199;-85
2021/11/17 02:50:21;;;;;;;10.07;8.00;;;;;;;6.46;89.02;95903.09;5013546;28;20190;-85
2021/11/17 02:53:02;;;;;;;10.00;7.90;;;;;;;6.48;88.70;95907.13;5014619;28;20206;-85
2021/11/17 02:55:53;;;;;;;8.93;7.43;;;;;;;6.50;88.94;95914.66;5013847;28;20593;-85
2021/11/17 02:58:39;;;;;;;10.03;7.63;;;;;;;6.48;88.83;95917.34;5013842;28;20199;-85
2021/11/17 03:01:37;;;;;;;10.37;7.83;;;;;;;6.47;89.01;95920.03;5013257;28;20604;-85
2021/11/17 03:04:21;;;;;;;10.67;7.90;;;;;;;6.47;88.76;95920.03;5012949;28;20621;-85
2021/11/17 03:07:04;;;;;;;11.00;7.87;;;;;;;6.42;89.34;95922.22;5013650;28;20202;-85
2021/11/17 03:09:51;;;;;;;9.80;7.80;;;;;;;6.45;89.26;95921.94;5013543;28;20214;-85
2021/11/17 03:12:31;;;;;;;9.97;7.90;;;;;;;6.53;88.57;95914.38;5013837;28;20203;-85
2021/11/17 03:15:21;;;;;;;10.30;7.13;;;;;;;6.60;87.78;95915.38;5013564;28;20273;-85
2021/11/17 03:18:01;;;;;;;10.07;7.70;;;;;;;6.57;87.84;95926.69;5014453;28;20702;-86
2021/11/17 03:20:44;;;;;;;9.23;8.00;;;;;;;6.64;87.52;95919.28;5008111;28;20203;-85
2021/11/17 03:23:26;;;;;;;11.20;7.63;;;;;;;6.63;87.27;95915.09;4993120;28;20227;-85
2021/11/17 03:26:11;;;;;;;8.93;7.83;;;;;;;6.64;86.86;95919.28;5001368;28;20218;-85
2021/11/17 03:28:55;;;;;;;11.07;8.47;;;;;;;6.56;87.25;95924.28;5013872;28;20202;-85
2021/11/17 03:31:36;;;;;;;10.03;8.23;;;;;;;6.59;87.16;95918.88;5014114;28;20214;-85
2021/11/17 03:34:34;;;;;;;10.37;7.90;;;;;;;6.61;86.89;95921.31;5013542;28;20203;-85
2021/11/17 03:37:33;;;;;;;8.87;7.13;;;;;;;6.65;86.57;95922.63;5006843;28;20627;-85
2021/11/17 03:40:27;;;;;;;9.60;8.23;;;;;;;6.64;87.05;95921.03;5003752;28;20199;-85
2021/11/17 03:43:25;;;;;;;10.33;8.63;;;;;;;6.67;86.72;95919.00;5012774;28;20191;-85
2021/11/17 03:46:22;;;;;;;11.20;7.97;;;;;;;6.71;86.15;95925.44;5013180;28;20227;-85
2021/11/17 03:49:05;;;;;;;10.67;7.80;;;;;;;6.75;86.67;95924.16;4999560;28;20206;-85
2021/11/17 03:51:46;;;;;;;9.63;8.33;;;;;;;6.66;87.33;95931.91;5013242;28;20207;-85
2021/11/17 03:54:28;;;;;;;10.60;8.40;;;;;;;6.68;87.32;95930.84;5012305;28;20199;-85
2021/11/17 03:57:18;;;;;;;9.20;7.53;;;;;;;6.69;87.13;95937.56;5013276;28;20218;-85
2021/11/17 04:00:05;;;;;;;11.00;8.43;;;;;;;6.66;87.20;95935.28;5002453;28;20246;-85
2021/11/17 04:02:45;;;;;;;10.77;7.90;;;;;;;6.67;86.97;95936.91;5012029;28;20225;-85
2021/11/17 04:05:33;;;;;;;9.97;8.33;;;;;;;6.62;87.41;95938.25;4992889;28;20227;-85
2021/11/17 04:08:15;;;;;;;9.53;7.83;;;;;;;6.63;87.82;95930.44;4996873;28;20590;-85
2021/11/17 04:10:58;;;;;;;10.57;8.27;;;;;;;6.66;87.28;95930.16;5012376;28;20606;-85
2021/11/17 04:13:35;;;;;;;11.10;8.67;;;;;;;6.64;87.42;95931.25;5012341;28;20198;-85
2021/11/17 04:16:15;;;;;;;11.80;8.77;;;;;;;6.60;87.91;95943.53;5011478;28;20214;-85
2021/11/17 04:18:53;;;;;;;10.87;9.03;;;;;;;6.57;88.15;95939.50;5012486;28;20206;-85
2021/11/17 04:21:38;;;;;;;12.37;8.53;;;;;;;6.61;87.95;95939.22;4992320;28;20237;-86
2021/11/17 04:24:23;;;;;;;12.43;8.67;;;;;;;6.65;87.77;95937.97;4994039;28;20663;-85
2021/11/17 04:27:05;;;;;;;12.87;8.33;;;;;;;6.65;87.65;95938.78;5012222;28;20591;-85
2021/11/17 04:30:06;;;;;;;10.17;8.63;;;;;;;6.67;87.41;95938.66;5012138;28;20268;-85
2021/11/17 04:32:58;;;;;;;10.17;8.30;;;;;;;6.70;87.43;95938.38;5011501;28;20242;-85
2021/11/17 04:35:58;;;;;;;11.10;8.33;;;;;;;6.70;87.00;95939.16;5011944;28;20249;-84
2021/11/17 04:38:50;;;;;;;11.47;8.17;;;;;;;6.74;86.97;95942.22;5010685;28;20210;-84
2021/11/17 04:41:35;;;;;;;10.47;8.60;;;;;;;6.67;86.93;95942.00;4992358;28;20257;-85
2021/11/17 04:44:27;;;;;;;10.80;9.00;;;;;;;6.71;86.86;95939.97;4997701;28;20290;-85
2021/11/17 04:47:09;;;;;;;10.60;7.80;;;;;;;6.67;86.61;95944.56;5011382;28;20233;-85
2021/11/17 04:49:54;;;;;;;11.83;8.20;;;;;;;6.68;86.92;95940.25;5011423;28;20203;-85
2021/11/17 04:52:39;;;;;;;15.23;11.73;;;;;;;6.69;87.10;95942.69;5010661;28;20202;-85
2021/11/17 04:55:25;;;;;;;12.43;9.87;;;;;;;6.67;87.64;95938.66;5008505;28;20218;-85
2021/11/17 04:58:06;;;;;;;11.50;9.40;;;;;;;6.69;87.37;95936.75;5011635;28;20209;-85
2021/11/17 05:01:01;;;;;;;10.70;8.70;;;;;;;6.69;86.90;95936.75;5011302;28;20578;-84
2021/11/17 05:03:44;;;;;;;10.20;8.50;;;;;;;6.73;86.59;95938.09;5009253;28;20729;-85
2021/11/17 05:06:31;;;;;;;10.03;8.43;;;;;;;6.70;86.31;95935.81;5011801;28;20796;-85
2021/11/17 05:09:06;;;;;;;11.10;8.30;;;;;;;6.70;86.33;95934.06;5014376;28;20225;-84
2021/11/17 05:11:44;;;;;;;10.63;8.60;;;;;;;6.69;86.93;95929.88;5015094;28;20210;-83
2021/11/17 05:14:20;;;;;;;11.43;8.73;;;;;;;6.69;86.60;95936.75;5014590;28;20206;-84
2021/11/17 05:16:58;;;;;;;9.90;8.03;;;;;;;6.74;86.04;95934.53;5017833;28;20666;-84
2021/11/17 05:19:35;;;;;;;9.77;7.93;;;;;;;6.74;86.34;95937.09;5017879;28;20210;-84
2021/11/17 05:22:16;;;;;;;9.43;7.97;;;;;;;6.69;85.85;95936.75;5017415;28;20235;-84
2021/11/17 05:24:57;;;;;;;13.33;8.63;;;;;;;6.59;86.42;95937.59;5010063;28;20214;-85
2021/11/17 05:27:41;;;;;;;9.77;8.20;;;;;;;6.66;86.21;95939.59;5010659;28;20253;-85
2021/11/17 05:30:23;;;;;;;9.63;8.00;;;;;;;6.65;86.42;95933.66;5014860;28;20627;-85
2021/11/17 05:33:01;;;;;;;9.90;8.03;;;;;;;6.69;85.64;95941.88;5015875;28;20198;-85
2021/11/17 05:35:42;;;;;;;13.50;9.10;;;;;;;6.64;86.07;95934.63;5016408;28;20297;-85
2021/11/17 05:38:20;;;;;;;9.90;8.50;;;;;;;6.61;86.82;95936.66;5015331;28;20202;-84
2021/11/17 05:41:01;;;;;;;11.87;8.67;;;;;;;6.66;86.16;95939.59;5014491;28;20195;-85
2021/11/17 05:43:51;;;;;;;10.13;8.20;;;;;;;6.64;86.52;95947.41;5012304;28;20209;-85
2021/11/17 05:46:30;;;;;;;12.03;8.97;;;;;;;6.61;86.21;95940.03;5003997;28;20254;-85
2021/11/17 05:49:07;;;;;;;12.07;8.80;;;;;;;6.58;87.44;95938.53;5009785;28;20229;-85
2021/11/17 05:51:50;;;;;;;11.00;8.63;;;;;;;6.57;86.29;95939.50;4997885;28;20202;-84
2021/11/17 05:54:33;;;;;;;17.00;12.87;;;;;;;6.60;86.27;95951.19;5009082;28;20262;-85
2021/11/17 05:57:12;;;;;;;14.37;10.53;;;;;;;6.54;86.73;95950.00;5011561;28;20674;-85
2021/11/17 05:59:52;;;;;;;11.87;8.57;;;;;;;6.63;86.47;95952.66;4998127;28;20210;-85
2021/11/17 06:02:40;;;;;;;9.97;8.23;;;;;;;6.63;85.86;95961.16;5013041;28;20361;-85
2021/11/17 06:05:06;;;;;;;11.20;8.33;;;;;;;6.65;85.84;95961.81;4994503;28;20247;-85
2021/11/17 06:07:33;;;;;;;10.27;8.53;;;;;;;6.70;85.41;95956.28;4994588;28;20219;-85
2021/11/17 06:10:07;;;;;;;12.33;8.87;;;;;;;6.69;86.03;95958.03;5003757;28;20214;-84
2021/11/17 06:12:35;;;;;;;11.90;8.47;;;;;;;6.69;85.78;95968.25;5007519;28;20213;-84
2021/11/17 06:15:02;;;;;;;12.43;9.00;;;;;;;6.68;85.67;95963.28;5013739;28;20218;-85
2021/11/17 06:17:29;;;;;;;11.57;8.53;;;;;;;6.69;86.23;95970.03;5007665;28;20223;-85
2021/11/17 06:19:57;;;;;;;10.93;8.53;;;;;;;6.64;86.36;95970.44;5002738;28;20202;-84
2021/11/17 06:22:27;;;;;;;10.43;8.50;;;;;;;6.66;86.50;95968.53;5010926;28;20226;-84
2021/11/17 06:24:56;;;;;;;11.10;8.97;;;;;;;6.68;86.50;95970.97;5015928;28;20218;-84
2021/11/17 06:27:29;;;;;;;11.93;9.10;;;;;;;6.68;86.52;95973.53;5017054;28;20598;-84
2021/11/17 06:29:58;;;;;;;10.57;8.50;;;;;;;6.70;86.58;95971.63;5006239;28;20211;-84
2021/11/17 06:32:25;;;;;;;11.57;8.87;;;;;;;6.68;87.22;95978.63;5007210;28;20199;-85
2021/11/17 06:34:54;;;;;;;12.60;8.87;;;;;;;6.66;87.24;95975.41;5007562;28;20211;-85
2021/11/17 06:37:22;;;;;;;11.83;8.90;;;;;;;6.64;89.08;95972.19;5001009;28;20234;-84
2021/11/17 06:39:53;;;;;;;13.43;8.80;;;;;;;6.63;88.75;95980.81;5006249;28;20207;-84
2021/11/17 06:42:22;;;;;;;12.23;9.30;;;;;;;6.64;88.11;95983.22;5012547;28;20210;-84
2021/11/17 06:44:50;;;;;;;12.37;9.50;;;;;;;6.67;87.92;95990.63;5006246;28;20229;-84
2021/11/17 06:47:17;;;;;;;11.50;8.23;;;;;;;6.68;88.35;95989.69;5013883;28;20621;-83
2021/11/17 06:49:44;;;;;;;11.47;9.20;;;;;;;6.65;88.63;95994.28;5015808;28;20222;-84
2021/11/17 06:52:11;;;;;;;13.33;9.27;;;;;;;6.72;87.81;95995.31;5014689;28;20666;-84
2021/11/17 06:54:38;;;;;;;12.33;9.07;;;;;;;6.68;88.29;96004.22;5007795;28;20227;-84
2021/11/17 06:57:05;;;;;;;12.67;9.43;;;;;;;6.71;88.44;96003.94;5007500;28;20207;-85
2021/11/17 06:59:31;;;;;;;11.60;9.50;;;;;;;6.63;89.57;95999.53;5005197;28;20203;-85
2021/11/17 07:02:05;;;;;;;12.17;9.90;;;;;;;6.69;89.16;96001.53;5013628;28;20199;-84
2021/11/17 07:04:32;;;;;;;13.60;9.70;;;;;;;6.74;88.77;96001.06;5005055;28;20227;-84
2021/11/17 07:06:58;;;;;;;12.30;9.77;;;;;;;6.81;87.91;96000.38;5010422;28;20235;-84
2021/11/17 07:09:25;;;;;;;13.43;9.83;;;;;;;6.83;87.82;96005.34;5010198;28;20222;-84
2021/11/17 07:11:52;;;;;;;12.17;9.03;;;;;;;6.82;87.18;96013.97;5005639;28;20207;-84
2021/11/17 07:14:21;;;;;;;12.23;9.73;;;;;;;6.79;87.62;96009.13;5011724;28;20206;-84
2021/11/17 07:16:48;;;;;;;13.10;9.07;;;;;;;6.81;87.65;96015.72;5006826;28;20225;-85
2021/11/17 07:19:23;;;;;;;12.13;9.40;;;;;;;6.85;87.23;96014.50;5005975;28;20204;-84
2021/11/17 07:21:51;;;;;;;11.43;9.63;;;;;;;6.77;87.70;96019.53;5005608;28;20230;-84
2021/11/17 07:24:17;;;;;;;12.50;9.80;;;;;;;6.82;87.58;96017.34;5006924;28;20423;-85
2021/11/17 07:26:44;;;;;;;11.07;9.27;;;;;;;6.78;86.78;96017.75;5000948;28;20230;-84
2021/11/17 07:29:11;;;;;;;11.27;9.40;;;;;;;6.82;86.66;96029.34;5013021;28;20194;-84
2021/11/17 07:31:38;;;;;;;12.93;9.83;;;;;;;6.82;86.86;96025.03;5004954;28;20199;-85
2021/11/17 07:34:04;;;;;;;11.23;9.20;;;;;;;6.85;86.63;96029.06;4994517;28;20208;-84
2021/11/17 07:36:33;;;;;;;11.73;10.10;;;;;;;6.87;86.70;96024.59;4999042;28;20559;-85
2021/11/17 07:38:59;;;;;;;11.97;9.67;;;;;;;6.90;86.82;96032.00;5005966;28;20199;-85
2021/11/17 07:41:25;;;;;;;12.40;9.10;;;;;;;6.91;86.33;96028.50;5003047;28;20190;-84
2021/11/17 07:43:52;;;;;;;12.77;9.47;;;;;;;6.93;85.91;96029.94;5006999;28;20218;-84
2021/11/17 07:46:18;;;;;;;12.27;9.77;;;;;;;6.92;86.01;96030.09;5007861;28;20280;-84
2021/11/17 07:48:45;;;;;;;12.90;9.80;;;;;;;6.94;86.62;96035.88;5005374;28;20202;-84
2021/11/17 07:51:12;;;;;;;12.97;9.57;;;;;;;6.90;86.75;96037.13;5004544;28;20239;-84
2021/11/17 07:53:40;;;;;;;11.47;9.70;;;;;;;6.93;86.29;96034.25;5011800;28;20245;-85
2021/11/17 07:56:07;;;;;;;11.17;9.57;;;;;;;6.98;85.93;96036.38;5001955;28;20222;-84
2021/11/17 07:58:40;;;;;;;12.67;9.20;;;;;;;6.98;86.01;96042.31;5011868;28;20203;-84
2021/11/17 08:01:07;;;;;;;10.63;8.87;;;;;;;7.01;86.22;96046.34;4996143;28;20203;-84
2021/11/17 08:03:38;;;;;;;11.73;9.43;;;;;;;6.98;86.29;96044.88;5004022;28;20261;-84
2021/11/17 08:06:06;;;;;;;10.27;8.50;;;;;;;7.02;85.88;96046.22;5006152;28;20231;-84
2021/11/17 08:08:33;;;;;;;10.73;9.43;;;;;;;7.01;85.73;96048.91;5007607;28;20202;-84
2021/11/17 08:11:03;;;;;;;11.07;9.10;;;;;;;6.92;86.59;96055.72;5002906;28;20199;-84
2021/11/17 08:13:32;;;;;;;11.43;9.30;;;;;;;6.96;86.75;96048.53;5006918;28;20658;-84
2021/11/17 08:15:58;;;;;;;11.90;9.70;;;;;;;6.84;87.78;96051.28;5001235;28;20246;-84
2021/11/17 08:18:26;;;;;;;11.67;9.67;;;;;;;6.91;87.02;96051.53;4993612;28;20215;-84
2021/11/17 08:20:52;;;;;;;13.03;9.93;;;;;;;7.01;86.85;96051.47;5007246;28;20293;-85
2021/11/17 08:23:22;;;;;;;12.10;9.90;;;;;;;7.00;85.68;96053.22;5003243;28;20226;-83
2021/11/17 08:25:48;;;;;;;11.33;8.60;;;;;;;7.03;85.99;96060.63;5009662;28;20222;-84
2021/11/17 08:28:17;;;;;;;10.03;8.90;;;;;;;7.01;85.07;96056.59;5009935;28;20210;-85
2021/11/17 08:30:47;;;;;;;11.33;9.20;;;;;;;7.04;84.99;96059.66;5009716;28;20288;-85
2021/11/17 08:33:16;;;;;;;12.63;9.97;;;;;;;7.05;84.80;96071.53;4993101;28;20200;-84
2021/11/17 08:35:44;;;;;;;12.00;9.67;;;;;;;6.99;85.64;96071.28;4992794;28;20215;-84
2021/11/17 08:38:12;;;;;;;11.80;8.77;;;;;;;6.97;84.59;96078.28;5004753;28;20602;-84
2021/11/17 08:40:42;;;;;;;10.77;8.87;;;;;;;6.99;85.06;96084.09;5010247;28;20203;-85
2021/11/17 08:43:08;;;;;;;11.20;8.83;;;;;;;7.01;84.29;96093.22;5007884;28;20690;-85
2021/11/17 08:45:38;;;;;;;12.30;9.67;;;;;;;6.97;85.05;96091.91;5014023;28;20218;-84
2021/11/17 08:48:06;;;;;;;12.40;9.13;;;;;;;6.96;85.14;96095.41;5008919;28;20322;-85
2021/11/17 08:50:33;;;;;;;10.97;9.50;;;;;;;6.97;84.73;96093.66;5014187;28;20191;-85
2021/11/17 08:53:02;;;;;;;12.73;9.47;;;;;;;6.93;84.91;96093.13;4999131;28;20764;-85
2021/11/17 08:55:31;;;;;;;12.67;9.27;;;;;;;6.91;85.36;96095.84;5014181;28;20233;-84
2021/11/17 08:57:58;;;;;;;12.20;10.10;;;;;;;6.97;85.17;96099.56;5012800;28;20229;-85
2021/11/17 09:00:26;;;;;;;11.70;9.27;;;;;;;7.06;85.20;96100.50;5009953;28;20200;-84
2021/11/17 09:02:56;;;;;;;11.93;9.93;;;;;;;7.11;85.33;96106.00;5015798;28;20210;-84
2021/11/17 09:05:25;;;;;;;12.03;9.57;;;;;;;7.13;85.01;96106.63;5017084;28;20238;-84
2021/11/17 09:07:51;;;;;;;13.27;9.93;;;;;;;7.14;84.98;96105.69;5014307;28;20234;-84
2021/11/17 09:10:21;;;;;;;12.63;9.53;;;;;;;7.15;84.64;96108.13;5015493;28;20202;-84
2021/11/17 09:12:48;;;;;;;11.87;9.67;;;;;;;7.19;85.31;96117.13;5018068;28;20195;-84
2021/11/17 09:15:16;;;;;;;12.93;10.30;;;;;;;7.09;85.83;96116.38;5018717;28;20219;-85
2021/11/17 09:17:44;;;;;;;14.00;9.40;;;;;;;7.14;85.36;96113.38;5013386;28;20591;-83
2021/11/17 09:20:14;;;;;;;10.77;8.90;;;;;;;7.17;85.37;96111.34;5015969;28;20210;-84
2021/11/17 09:22:42;;;;;;;11.90;9.67;;;;;;;7.21;85.33;96111.88;5016948;28;20227;-84
2021/11/17 09:25:09;;;;;;;11.03;9.40;;;;;;;7.26;85.83;96114.81;5017738;28;20219;-85
2021/11/17 09:27:36;;;;;;;13.00;10.27;;;;;;;7.25;85.77;96106.34;5015834;28;20632;-84
2021/11/17 09:30:07;;;;;;;11.10;9.47;;;;;;;7.26;85.00;96107.13;5016834;28;20209;-85
2021/11/17 09:32:33;;;;;;;13.67;9.83;;;;;;;7.27;85.30;96112.13;5015583;28;20198;-85
2021/11/17 09:35:00;;;;;;;10.63;9.53;;;;;;;7.26;85.35;96117.38;5015092;28;20214;-84
2021/11/17 09:37:29;;;;;;;10.70;9.10;;;;;;;7.29;84.81;96124.78;5014860;28;20659;-84
2021/11/17 09:39:56;;;;;;;12.10;9.40;;;;;;;7.23;84.51;96125.34;5014678;28;20205;-84
2021/11/17 09:42:23;;;;;;;11.73;9.23;;;;;;;7.13;84.24;96122.00;5016146;28;20235;-84
2021/11/17 09:44:50;;;;;;;12.10;8.83;;;;;;;7.17;84.69;96126.72;5015719;28;20226;-84
2021/11/17 09:47:20;;;;;;;10.67;9.57;;;;;;;7.24;84.46;96127.75;5015594;28;20222;-84
2021/11/17 09:49:56;;;;;;;11.07;9.27;;;;;;;7.19;85.53;96132.50;5016973;28;20225;-85
2021/11/17 09:52:25;;;;;;;13.10;8.90;;;;;;;7.19;85.25;96129.94;5016210;28;20198;-84
2021/11/17 09:54:57;;;;;;;9.97;8.43;;;;;;;7.19;84.88;96132.50;5013954;28;20218;-85
2021/11/17 09:57:26;;;;;;;10.10;8.53;;;;;;;7.16;85.15;96131.97;5014281;28;20206;-85
2021/11/17 10:00:10;;;;;;;10.00;8.00;;;;;;;7.19;85.17;96129.13;5013400;28;20581;-84
2021/11/17 10:02:42;;;;;;;10.53;8.13;;;;;;;7.14;86.23;96129.56;5015242;28;20686;-84
2021/11/17 10:05:15;;;;;;;8.83;7.70;;;;;;;7.19;85.44;96139.38;5012431;28;20597;-85
2021/11/17 10:13:37;;;;;;;8.90;7.07;;;;;;;7.18;85.01;96148.00;5012930;28;21295;-85
2021/11/17 10:16:04;;;;;;;9.73;7.20;;;;;;;7.22;84.77;96154.47;5012348;28;20219;-84
2021/11/17 10:18:45;;;;;;;8.10;6.77;;;;;;;7.27;84.82;96152.28;5013962;28;20207;-84
2021/11/17 10:21:16;;;;;;;9.07;7.10;;;;;;;7.19;84.88;96152.19;5013748;28;20206;-84
2021/11/17 10:24:01;;;;;;;8.53;7.00;;;;;;;7.15;83.98;96158.53;5014610;28;20203;-84
2021/11/17 10:26:29;;;;;;;8.27;6.80;;;;;;;7.12;85.00;96156.28;5012140;28;20223;-84
2021/11/17 10:28:59;;;;;;;8.90;7.40;;;;;;;7.16;84.90;96155.81;5013560;28;20590;-83
2021/11/17 10:31:30;;;;;;;8.27;6.67;;;;;;;7.22;84.67;96154.47;5014562;28;20195;-84
2021/11/17 10:34:11;;;;;;;7.53;5.90;;;;;;;7.27;83.75;96147.97;5013616;28;20609;-84
2021/11/17 10:36:51;;;;;;;11.77;6.50;;;;;;;7.34;83.51;96137.94;5015059;28;20230;-84
2021/11/17 10:39:21;;;;;;;6.20;5.60;;;;;;;7.24;82.91;96130.31;5018303;28;20555;-84
2021/11/17 10:42:00;;;;;;;8.70;6.27;;;;;;;7.25;82.82;96131.13;5017588;28;20206;-84
2021/11/17 10:44:40;;;;;;;7.20;5.50;;;;;;;7.20;83.08;96131.56;5014866;28;20222;-84
2021/11/17 10:47:18;;;;;;;6.47;5.83;;;;;;;7.21;83.88;96130.59;5016780;28;20641;-84
2021/11/17 10:49:46;;;;;;;7.43;6.00;;;;;;;7.25;82.68;96126.00;5015491;28;20199;-84
2021/11/17 10:52:14;;;;;;;7.07;5.90;;;;;;;7.28;82.57;96123.16;5017107;28;20210;-84
2021/11/17 10:54:49;;;;;;;8.57;5.77;;;;;;;7.23;83.06;96115.09;5012502;28;20211;-84
2021/11/17 10:57:22;;;;;;;6.47;5.87;;;;;;;7.17;83.22;96115.66;5013483;28;20209;-84
2021/11/17 10:59:50;;;;;;;8.47;5.73;;;;;;;7.10;83.50;96115.44;5016059;28;20214;-84
2021/11/17 11:02:18;;;;;;;6.30;5.27;;;;;;;7.12;82.85;96110.97;5016774;28;20226;-84
2021/11/17 11:04:49;;;;;;;5.40;4.67;;;;;;;7.17;82.56;96113.09;5011756;28;20797;-84
2021/11/17 11:07:19;;;;;;;5.87;5.20;;;;;;;7.19;82.55;96114.56;5011825;28;20277;-84
2021/11/17 11:09:51;;;;;;;9.30;3.97;;;;;;;7.72;100.00;96118.97;4996448;28;20207;-84
2021/11/17 11:12:20;;;;;;;6.73;4.87;;;;;;;8.15;95.23;96115.69;5013078;28;20761;-84
2021/11/17 11:15:03;;;;;;;5.93;5.33;;;;;;;8.15;80.76;96112.31;5012651;28;20222;-84
2021/11/17 11:17:34;;;;;;;5.60;4.90;;;;;;;8.09;80.76;96110.31;5013880;28;20666;-85
2021/11/17 11:20:33;;;;;;;5.30;4.63;;;;;;;7.84;79.68;96112.69;5012211;28;20210;-84
2021/11/17 11:23:31;;;;;;;4.77;4.27;;;;;;;7.71;79.07;96119.91;5012556;28;20231;-84
2021/11/17 11:26:07;;;;;;;4.37;3.97;;;;;;;7.56;78.74;96117.06;5013225;28;20230;-84
2021/11/17 11:28:38;;;;;;;4.20;3.67;;;;;;;7.54;78.92;96123.28;5013562;28;20218;-84
2021/11/17 11:31:34;;;;;;;4.23;3.83;;;;;;;7.53;78.58;96114.78;5015485;28;20230;-84
2021/11/17 11:34:45;;;;;;;7.60;3.97;;;;;;;7.49;78.52;96117.81;5012908;28;20201;-85
2021/11/17 11:37:37;;;;;;;4.53;3.87;;;;;;;7.44;79.23;96099.47;5005452;28;20209;-84
2021/11/17 11:40:26;;;;;;;4.33;3.80;;;;;;;7.45;79.28;96107.03;5013408;28;20199;-84
2021/11/17 11:43:22;;;;;;;6.83;4.33;;;;;;;7.55;78.50;96106.94;5013976;28;20210;-84
2021/11/17 11:45:52;;;;;;;4.40;3.93;;;;;;;7.64;78.93;96100.97;5013504;28;20219;-84
2021/11/17 11:49:07;;;;;;;5.97;3.83;;;;;;;7.73;78.81;96091.59;5009952;28;20222;-85
2021/11/17 11:52:14;;;;;;;4.90;3.67;;;;;;;7.77;77.93;96098.03;5013472;28;20209;-84
2021/11/17 11:55:16;;;;;;;4.70;3.97;;;;;;;7.83;78.14;96097.47;5013097;28;20223;-85
2021/11/17 11:57:45;;;;;;;4.10;3.70;;;;;;;7.82;78.41;96103.53;4983983;28;20610;-84
2021/11/17 12:00:17;;;;;;;3.93;3.53;;;;;;;7.78;79.02;96094.53;5014108;28;20207;-85
2021/11/17 12:02:50;;;;;;;4.37;3.97;;;;;;;7.79;78.74;96104.63;5014036;28;20210;-83
2021/11/17 12:05:29;;;;;;;4.53;3.83;;;;;;;7.80;78.74;96103.69;5002346;28;20234;-85
2021/11/17 12:07:59;;;;;;;4.27;3.53;;;;;;;7.83;77.52;96105.16;5013226;28;20229;-84
2021/11/17 12:10:32;;;;;;;3.93;3.33;;;;;;;7.83;76.69;96100.84;5015516;28;20203;-84
2021/11/17 12:13:11;;;;;;;6.40;3.30;;;;;;;7.81;76.66;96100.16;5014330;28;20203;-84
2021/11/17 12:15:40;;;;;;;4.10;3.70;;;;;;;7.91;77.10;96108.56;5012785;28;20253;-84
2021/11/17 12:18:14;;;;;;;4.57;3.60;;;;;;;7.85;76.22;96109.19;5014934;28;20194;-83
2021/11/17 12:20:45;;;;;;;3.87;3.50;;;;;;;7.91;76.15;96105.22;5014989;28;20202;-84
2021/11/17 12:23:20;;;;;;;4.30;3.50;;;;;;;7.93;76.01;96114.38;5014014;28;20244;-84
2021/11/17 12:25:56;;;;;;;3.40;2.90;;;;;;;7.81;75.92;96114.75;5013506;28;20218;-83
2021/11/17 12:28:24;;;;;;;6.23;3.40;;;;;;;7.72;76.22;96116.41;5012002;28;20784;-84
2021/11/17 12:30:59;;;;;;;3.43;3.13;;;;;;;7.64;76.15;96121.47;5013766;28;20199;-84
2021/11/17 12:33:33;;;;;;;3.90;3.50;;;;;;;7.66;76.64;96117.00;5010519;28;20201;-83
2021/11/17 12:36:06;;;;;;;4.90;3.77;;;;;;;7.65;76.48;96112.03;5010159;28;20229;-84
2021/11/17 12:38:35;;;;;;;4.60;3.40;;;;;;;7.58;76.68;96114.34;5013006;28;20191;-83
2021/11/17 12:41:08;;;;;;;3.87;3.47;;;;;;;7.63;76.77;96105.28;5013019;28;20257;-84
2021/11/17 12:43:38;;;;;;;6.57;3.70;;;;;;;7.69;76.96;96111.59;5011978;28;20862;-83
2021/11/17 12:46:11;;;;;;;6.03;4.17;;;;;;;7.73;76.89;96107.78;5010176;28;20312;-84
2021/11/17 12:48:44;;;;;;;7.50;5.13;;;;;;;7.79;76.42;96107.19;5010773;28;20265;-84
2021/11/17 12:51:16;;;;;;;5.77;4.03;;;;;;;7.78;76.80;96104.78;5012747;28;20215;-84
2021/11/17 12:53:46;;;;;;;5.50;4.03;;;;;;;7.82;76.74;96104.34;5012329;28;20206;-84
2021/11/17 12:56:18;;;;;;;5.80;3.93;;;;;;;7.81;76.04;96105.28;5014411;28;20230;-83
2021/11/17 12:58:50;;;;;;;4.90;3.43;;;;;;;7.85;76.30;96109.19;5012069;28;20195;-84
2021/11/17 13:01:31;;;;;;;4.53;3.47;;;;;;;7.77;77.11;96109.09;5015334;28;20221;-84
2021/11/17 13:04:05;;;;;;;4.50;3.30;;;;;;;7.85;77.51;96109.19;5015812;28;20199;-84
2021/11/17 13:06:33;;;;;;;3.77;3.47;;;;;;;7.82;77.29;96117.16;5011654;28;20229;-84
2021/11/17 13:09:11;;;;;;;4.77;3.53;;;;;;;7.84;77.74;96115.25;5014386;28;20577;-83
2021/11/17 13:11:51;;;;;;;6.10;3.70;;;;;;;7.91;78.42;96113.69;5016228;28;20645;-84
2021/11/17 13:14:21;;;;;;;3.83;3.47;;;;;;;7.98;77.96;96114.75;5015495;28;20578;-84
2021/11/17 13:16:48;;;;;;;3.40;3.10;;;;;;;8.00;78.22;96117.16;5015408;28;20209;-84
2021/11/17 13:19:30;;;;;;;5.80;3.70;;;;;;;7.95;77.53;96106.53;5015345;28;20191;-84
2021/11/17 13:21:58;;;;;;;4.17;3.50;;;;;;;7.86;77.68;96118.50;5016230;28;20277;-84
2021/11/17 13:24:30;;;;;;;5.80;3.50;;;;;;;7.74;78.11;96116.25;5011975;28;20234;-84
2021/11/17 13:27:21;;;;;;;4.07;3.30;;;;;;;7.66;77.93;96123.91;5010544;28;20206;-84
2021/11/17 13:29:52;;;;;;;3.80;3.10;;;;;;;7.50;77.89;96115.09;5012147;28;20662;-83
2021/11/17 13:32:28;;;;;;;6.37;3.00;;;;;;;7.52;77.99;96109.78;5014690;28;20202;-84
2021/11/17 13:34:58;;;;;;;3.53;2.90;;;;;;;7.49;78.15;96107.56;5013862;28;20648;-84
2021/11/17 13:37:35;;;;;;;3.70;3.30;;;;;;;7.47;78.45;96112.81;5016157;28;20574;-83
2021/11/17 13:40:07;;;;;;;3.63;3.00;;;;;;;7.42;77.77;96119.31;5013864;28;20195;-84
2021/11/17 13:42:33;;;;;;;4.23;2.97;;;;;;;7.44;77.96;96110.53;5016960;28;20269;-83
2021/11/17 13:45:01;;;;;;;4.90;3.10;;;;;;;7.45;78.36;96108.78;5018321;28;20230;-82
2021/11/17 13:47:30;;;;;;;4.03;3.07;;;;;;;7.46;78.51;96116.31;5016074;28;20202;-84
2021/11/17 13:49:59;;;;;;;6.13;3.10;;;;;;;7.42;77.18;96120.13;5017096;28;20206;-84
2021/11/17 13:52:29;;;;;;;3.27;2.80;;;;;;;7.49;76.46;96122.91;5018364;28;20207;-84
2021/11/17 13:54:56;;;;;;;4.70;2.97;;;;;;;7.59;77.01;96118.53;5005000;28;20227;-83
2021/11/17 13:57:24;;;;;;;2.87;2.50;;;;;;;7.51;76.73;96131.25;5016111;28;20550;-84
2021/11/17 13:59:52;;;;;;;4.60;3.10;;;;;;;7.46;76.96;96125.75;5015331;28;20285;-84
2021/11/17 14:02:18;;;;;;;4.77;3.30;;;;;;;7.47;77.60;96130.75;5016508;28;20206;-84
2021/11/17 14:04:45;;;;;;;5.43;2.97;;;;;;;7.51;77.19;96134.63;5015411;28;20227;-84
2021/11/17 14:07:15;;;;;;;3.90;3.50;;;;;;;7.53;77.23;96137.03;5016362;28;20191;-84
2021/11/17 14:09:42;;;;;;;4.20;3.50;;;;;;;7.54;76.76;96134.34;5016393;28;20214;-84
2021/11/17 14:12:09;;;;;;;3.83;3.37;;;;;;;7.52;76.67;96133.66;5015879;28;20203;-84
2021/11/17 14:14:36;;;;;;;3.53;3.20;;;;;;;7.53;76.65;96135.28;5016370;28;20218;-84
2021/11/17 14:17:04;;;;;;;3.67;3.30;;;;;;;7.50;76.88;96147.59;5016075;28;20233;-84
2021/11/17 14:19:31;;;;;;;3.33;3.03;;;;;;;7.46;77.00;96146.25;5017294;28;20650;-84
2021/11/17 14:21:58;;;;;;;4.40;3.40;;;;;;;7.44;77.39;96150.72;5015538;28;20226;-84
2021/11/17 14:24:27;;;;;;;3.63;3.33;;;;;;;7.32;77.61;96147.53;5016608;28;20203;-83
2021/11/17 14:27:04;;;;;;;4.00;3.60;;;;;;;7.24;78.15;96155.94;5018881;28;20221;-83
2021/11/17 14:29:34;;;;;;;3.83;3.40;;;;;;;7.26;78.40;96160.91;5017442;28;20218;-83
2021/11/17 14:32:06;;;;;;;3.70;3.40;;;;;;;7.24;78.59;96155.13;5018730;28;20202;-84
2021/11/17 14:34:32;;;;;;;4.03;3.50;;;;;;;7.25;77.86;96159.31;5016066;28;20669;-84
2021/11/17 14:37:04;;;;;;;3.87;3.50;;;;;;;7.27;77.40;96160.78;5015523;28;20211;-83
2021/11/17 14:39:34;;;;;;;4.90;3.80;;;;;;;7.24;78.00;96163.63;5015564;28;20256;-84
2021/11/17 14:42:00;;;;;;;3.83;3.40;;;;;;;7.20;77.30;96172.53;5016075;28;20698;-83
2021/11/17 14:44:28;;;;;;;4.43;3.20;;;;;;;7.24;77.59;96167.94;5015688;28;20199;-84
2021/11/17 14:46:54;;;;;;;4.23;3.23;;;;;;;7.21;77.07;96173.34;5014848;28;20203;-84